WZZ55BC LDSP-EPKT
Flight info
| Callsign | WZZ55BC |
|---|---|
| Flight time | 1h 16m |
| Altitude | 35000 |
| Route | UNIPA1W/05 UNIPA DCT KOPRY DCT LALES DCT OGDAS DCT BAVOK |
| Aircraft | A321/M-SDE3FGHIRWY/LB1 |
Departure
| Time | 2026-05-07 20:04 |
|---|---|
| Airport | Split Saint Jerome Airport (LDSP) |
Arrival
| Time | 2026-05-07 21:20 |
|---|---|
| Airport | Katowice Wojciech Korfanty International Airport (EPKT) |
| Time | Latitude | Longitude | Altitude | Speed | Heading |
|---|---|---|---|---|---|
| 2026-05-07 19:37 | 43.53723 | 16.29869 | 66 ft | 0 kts | 105° |
| 2026-05-07 19:57 | 43.53723 | 16.29871 | 68 ft | 0 kts | 105° |
| 2026-05-07 19:59 | 43.53723 | 16.29873 | 68 ft | 1 kts | 93° |
| 2026-05-07 19:59 | 43.53732 | 16.29906 | 68 ft | 6 kts | 61° |
| 2026-05-07 19:59 | 43.53762 | 16.29900 | 67 ft | 5 kts | 327° |
| 2026-05-07 19:59 | 43.53773 | 16.29856 | 63 ft | 5 kts | 267° |
| 2026-05-07 20:00 | 43.53754 | 16.29809 | 61 ft | 6 kts | 238° |
| 2026-05-07 20:00 | 43.53727 | 16.29757 | 63 ft | 7 kts | 233° |
| 2026-05-07 20:00 | 43.53700 | 16.29693 | 61 ft | 8 kts | 250° |
| 2026-05-07 20:00 | 43.53693 | 16.29599 | 66 ft | 15 kts | 271° |
| 2026-05-07 20:01 | 43.53690 | 16.29458 | 87 ft | 16 kts | 261° |
| 2026-05-07 20:01 | 43.53618 | 16.29298 | 87 ft | 21 kts | 232° |
| 2026-05-07 20:01 | 43.53529 | 16.29138 | 87 ft | 21 kts | 232° |
| 2026-05-07 20:01 | 43.53442 | 16.28985 | 88 ft | 20 kts | 232° |
| 2026-05-07 20:02 | 43.53352 | 16.28821 | 88 ft | 23 kts | 232° |
| 2026-05-07 20:02 | 43.53261 | 16.28660 | 87 ft | 16 kts | 230° |
| 2026-05-07 20:02 | 43.53200 | 16.28589 | 87 ft | 5 kts | 270° |
| 2026-05-07 20:02 | 43.53218 | 16.28577 | 85 ft | 2 kts | 23° |
| 2026-05-07 20:03 | 43.53243 | 16.28621 | 86 ft | 3 kts | 52° |
| 2026-05-07 20:03 | 43.53246 | 16.28626 | 86 ft | 0 kts | 52° |
| 2026-05-07 20:03 | 43.53340 | 16.28797 | 87 ft | 58 kts | 52° |
| 2026-05-07 20:03 | 43.53731 | 16.29499 | 85 ft | 124 kts | 53° |
| 2026-05-07 20:04 | 43.54359 | 16.30627 | 268 ft | 158 kts | 50° |
| 2026-05-07 20:04 | 43.55013 | 16.31817 | 1007 ft | 156 kts | 52° |
| 2026-05-07 20:04 | 43.55620 | 16.33072 | 1645 ft | 159 kts | 70° |
| 2026-05-07 20:04 | 43.55650 | 16.34592 | 2107 ft | 165 kts | 112° |
| 2026-05-07 20:05 | 43.54988 | 16.35941 | 2470 ft | 176 kts | 135° |
| 2026-05-07 20:05 | 43.53911 | 16.36776 | 2937 ft | 182 kts | 165° |
| 2026-05-07 20:05 | 43.52652 | 16.37006 | 3474 ft | 183 kts | 166° |
| 2026-05-07 20:05 | 43.51489 | 16.37720 | 3946 ft | 185 kts | 152° |
| 2026-05-07 20:06 | 43.50266 | 16.38361 | 4177 ft | 201 kts | 174° |
| 2026-05-07 20:06 | 43.48860 | 16.37927 | 4340 ft | 218 kts | 207° |
| 2026-05-07 20:06 | 43.47743 | 16.36440 | 4496 ft | 238 kts | 238° |
| 2026-05-07 20:06 | 43.47399 | 16.34150 | 4852 ft | 257 kts | 273° |
| 2026-05-07 20:07 | 43.48116 | 16.31840 | 5280 ft | 274 kts | 310° |
| 2026-05-07 20:07 | 43.49738 | 16.30439 | 5952 ft | 283 kts | 345° |
| 2026-05-07 20:07 | 43.51712 | 16.30315 | 6621 ft | 288 kts | 6° |
| 2026-05-07 20:07 | 43.53678 | 16.30894 | 7329 ft | 291 kts | 15° |
| 2026-05-07 20:08 | 43.55626 | 16.31733 | 8034 ft | 295 kts | 17° |
| 2026-05-07 20:08 | 43.57581 | 16.32621 | 8753 ft | 297 kts | 16° |
| 2026-05-07 20:08 | 43.59570 | 16.33477 | 9465 ft | 301 kts | 14° |
| 2026-05-07 20:08 | 43.61593 | 16.34275 | 10149 ft | 306 kts | 13° |
| 2026-05-07 20:09 | 43.63720 | 16.35050 | 10316 ft | 328 kts | 12° |
| 2026-05-07 20:09 | 43.65978 | 16.35825 | 10726 ft | 339 kts | 12° |
| 2026-05-07 20:09 | 43.68287 | 16.36598 | 11320 ft | 343 kts | 11° |
| 2026-05-07 20:10 | 43.72972 | 16.38153 | 12622 ft | 350 kts | 11° |
| 2026-05-07 20:10 | 43.75352 | 16.38948 | 13271 ft | 353 kts | 11° |
| 2026-05-07 20:10 | 43.77754 | 16.39753 | 13900 ft | 357 kts | 11° |
| 2026-05-07 20:10 | 43.80179 | 16.40568 | 14459 ft | 361 kts | 11° |
| 2026-05-07 20:11 | 43.82595 | 16.41381 | 15034 ft | 364 kts | 10° |
| 2026-05-07 20:11 | 43.85058 | 16.42209 | 15592 ft | 367 kts | 10° |
| 2026-05-07 20:11 | 43.87553 | 16.43049 | 16164 ft | 370 kts | 10° |
| 2026-05-07 20:11 | 43.90063 | 16.43896 | 16734 ft | 373 kts | 10° |
| 2026-05-07 20:12 | 43.92590 | 16.44752 | 17308 ft | 376 kts | 10° |
| 2026-05-07 20:12 | 43.95142 | 16.45620 | 17887 ft | 379 kts | 10° |
| 2026-05-07 20:12 | 43.97715 | 16.46495 | 18442 ft | 382 kts | 10° |
| 2026-05-07 20:12 | 44.00312 | 16.47372 | 18941 ft | 386 kts | 10° |
| 2026-05-07 20:13 | 44.02939 | 16.48238 | 19421 ft | 388 kts | 7° |
| 2026-05-07 20:13 | 44.05612 | 16.48825 | 19893 ft | 391 kts | 5° |
| 2026-05-07 20:13 | 44.08305 | 16.49388 | 20057 ft | 392 kts | 4° |
| 2026-05-07 20:13 | 44.11007 | 16.49952 | 20094 ft | 393 kts | 4° |
| 2026-05-07 20:14 | 44.13706 | 16.50518 | 20096 ft | 392 kts | 4° |
| 2026-05-07 20:14 | 44.16411 | 16.51088 | 20098 ft | 392 kts | 4° |
| 2026-05-07 20:14 | 44.19074 | 16.51646 | 20093 ft | 393 kts | 4° |
| 2026-05-07 20:14 | 44.21776 | 16.52214 | 20097 ft | 393 kts | 4° |
| 2026-05-07 20:15 | 44.24476 | 16.52784 | 20087 ft | 393 kts | 4° |
| 2026-05-07 20:15 | 44.27179 | 16.53355 | 20091 ft | 392 kts | 4° |
| 2026-05-07 20:15 | 44.29878 | 16.53925 | 20086 ft | 393 kts | 4° |
| 2026-05-07 20:15 | 44.32580 | 16.54495 | 20088 ft | 393 kts | 4° |
| 2026-05-07 20:16 | 44.35286 | 16.55064 | 20086 ft | 393 kts | 4° |
| 2026-05-07 20:16 | 44.37992 | 16.55634 | 20079 ft | 393 kts | 4° |
| 2026-05-07 20:16 | 44.40694 | 16.56207 | 20083 ft | 393 kts | 4° |
| 2026-05-07 20:16 | 44.43395 | 16.56780 | 20084 ft | 393 kts | 4° |
| 2026-05-07 20:17 | 44.46063 | 16.57345 | 20080 ft | 393 kts | 4° |
| 2026-05-07 20:17 | 44.48769 | 16.57918 | 20073 ft | 393 kts | 4° |
| 2026-05-07 20:17 | 44.51474 | 16.58493 | 20074 ft | 392 kts | 4° |
| 2026-05-07 20:17 | 44.54171 | 16.59066 | 20068 ft | 393 kts | 4° |
| 2026-05-07 20:18 | 44.56874 | 16.59639 | 20064 ft | 393 kts | 4° |
| 2026-05-07 20:18 | 44.59579 | 16.60212 | 20065 ft | 393 kts | 5° |
| 2026-05-07 20:18 | 44.62285 | 16.60786 | 20063 ft | 393 kts | 4° |
| 2026-05-07 20:18 | 44.64992 | 16.61359 | 20061 ft | 394 kts | 4° |
| 2026-05-07 20:19 | 44.67697 | 16.61934 | 20061 ft | 393 kts | 4° |
| 2026-05-07 20:19 | 44.70404 | 16.62514 | 20055 ft | 393 kts | 5° |
| 2026-05-07 20:19 | 44.73110 | 16.63096 | 20059 ft | 394 kts | 4° |
| 2026-05-07 20:19 | 44.75816 | 16.63678 | 20054 ft | 394 kts | 4° |
| 2026-05-07 20:20 | 44.78488 | 16.64252 | 20051 ft | 393 kts | 4° |
| 2026-05-07 20:20 | 44.81192 | 16.64831 | 20052 ft | 393 kts | 4° |
| 2026-05-07 20:20 | 44.83894 | 16.65408 | 20051 ft | 393 kts | 4° |
| 2026-05-07 20:20 | 44.86597 | 16.65985 | 20049 ft | 393 kts | 4° |
| 2026-05-07 20:21 | 44.89300 | 16.66564 | 20047 ft | 393 kts | 4° |
| 2026-05-07 20:21 | 44.91998 | 16.67145 | 20061 ft | 394 kts | 5° |
| 2026-05-07 20:21 | 44.94720 | 16.67734 | 20546 ft | 396 kts | 4° |
| 2026-05-07 20:21 | 44.97453 | 16.68323 | 21053 ft | 399 kts | 4° |
| 2026-05-07 20:22 | 45.00213 | 16.68917 | 21539 ft | 402 kts | 4° |
| 2026-05-07 20:22 | 45.02989 | 16.69517 | 22019 ft | 406 kts | 4° |
| 2026-05-07 20:22 | 45.05793 | 16.70122 | 22497 ft | 409 kts | 4° |
| 2026-05-07 20:22 | 45.08617 | 16.70730 | 22977 ft | 412 kts | 4° |
| 2026-05-07 20:23 | 45.11464 | 16.71344 | 23453 ft | 416 kts | 4° |
| 2026-05-07 20:23 | 45.14338 | 16.71965 | 23862 ft | 419 kts | 3° |
| 2026-05-07 20:23 | 45.17231 | 16.72596 | 24259 ft | 422 kts | 4° |
| 2026-05-07 20:23 | 45.20138 | 16.73230 | 24663 ft | 424 kts | 3° |
| 2026-05-07 20:24 | 45.23064 | 16.73866 | 25059 ft | 426 kts | 3° |
| 2026-05-07 20:24 | 45.26003 | 16.74505 | 25447 ft | 428 kts | 3° |
| 2026-05-07 20:24 | 45.28956 | 16.75150 | 25828 ft | 430 kts | 3° |
| 2026-05-07 20:24 | 45.31925 | 16.75802 | 26202 ft | 433 kts | 3° |
| 2026-05-07 20:25 | 45.34906 | 16.76458 | 26580 ft | 435 kts | 3° |
| 2026-05-07 20:25 | 45.37903 | 16.77116 | 26942 ft | 437 kts | 3° |
| 2026-05-07 20:25 | 45.40871 | 16.77768 | 27292 ft | 439 kts | 3° |
| 2026-05-07 20:25 | 45.43891 | 16.78432 | 27647 ft | 441 kts | 3° |
| 2026-05-07 20:26 | 45.46934 | 16.79103 | 27999 ft | 443 kts | 3° |
| 2026-05-07 20:26 | 45.49988 | 16.79777 | 28352 ft | 445 kts | 3° |
| 2026-05-07 20:26 | 45.53061 | 16.80452 | 28691 ft | 447 kts | 3° |
| 2026-05-07 20:26 | 45.56145 | 16.81129 | 29028 ft | 450 kts | 3° |
| 2026-05-07 20:27 | 45.59246 | 16.81813 | 29364 ft | 452 kts | 2° |
| 2026-05-07 20:27 | 45.62358 | 16.82501 | 29685 ft | 454 kts | 2° |
| 2026-05-07 20:27 | 45.65487 | 16.83192 | 30000 ft | 456 kts | 2° |
| 2026-05-07 20:27 | 45.68629 | 16.83886 | 30285 ft | 458 kts | 2° |
| 2026-05-07 20:28 | 45.71783 | 16.84580 | 30551 ft | 460 kts | 2° |
| 2026-05-07 20:28 | 45.74955 | 16.85277 | 30800 ft | 462 kts | 2° |
| 2026-05-07 20:28 | 45.78135 | 16.85976 | 31048 ft | 464 kts | 3° |
| 2026-05-07 20:28 | 45.81336 | 16.86686 | 31294 ft | 466 kts | 3° |
| 2026-05-07 20:29 | 45.84543 | 16.87407 | 31537 ft | 468 kts | 3° |
| 2026-05-07 20:29 | 45.87616 | 16.88099 | 31791 ft | 469 kts | 3° |
| 2026-05-07 20:29 | 45.90834 | 16.88818 | 32146 ft | 468 kts | 3° |
| 2026-05-07 20:29 | 45.94059 | 16.89539 | 32497 ft | 468 kts | 3° |
| 2026-05-07 20:30 | 45.97273 | 16.90256 | 32838 ft | 467 kts | 3° |
| 2026-05-07 20:30 | 46.00482 | 16.90970 | 33179 ft | 467 kts | 3° |
| 2026-05-07 20:30 | 46.03692 | 16.91687 | 33518 ft | 466 kts | 3° |
| 2026-05-07 20:30 | 46.06894 | 16.92403 | 33846 ft | 466 kts | 3° |
| 2026-05-07 20:31 | 46.10095 | 16.93123 | 34141 ft | 466 kts | 4° |
| 2026-05-07 20:31 | 46.13293 | 16.93846 | 34399 ft | 466 kts | 4° |
| 2026-05-07 20:31 | 46.16491 | 16.94569 | 34650 ft | 465 kts | 4° |
| 2026-05-07 20:31 | 46.19693 | 16.95290 | 34896 ft | 466 kts | 4° |
| 2026-05-07 20:32 | 46.22901 | 16.96010 | 35005 ft | 464 kts | 4° |
| 2026-05-07 20:32 | 46.26045 | 16.96744 | 35026 ft | 453 kts | 4° |
| 2026-05-07 20:32 | 46.28094 | 16.97267 | 35026 ft | 450 kts | 5° |
| 2026-05-07 20:33 | 46.34233 | 16.98973 | 35030 ft | 449 kts | 6° |
| 2026-05-07 20:33 | 46.41358 | 17.00984 | 35032 ft | 449 kts | 5° |
| 2026-05-07 20:34 | 46.46501 | 17.02394 | 35029 ft | 449 kts | 5° |
| 2026-05-07 20:34 | 46.52649 | 17.04056 | 35032 ft | 450 kts | 5° |
| 2026-05-07 20:35 | 46.58767 | 17.05716 | 35036 ft | 450 kts | 5° |
| 2026-05-07 20:35 | 46.64932 | 17.07410 | 35038 ft | 451 kts | 5° |
| 2026-05-07 20:36 | 46.71114 | 17.09115 | 35038 ft | 452 kts | 5° |
| 2026-05-07 20:36 | 46.77304 | 17.10822 | 35038 ft | 453 kts | 5° |
| 2026-05-07 20:37 | 46.83512 | 17.12537 | 35040 ft | 454 kts | 5° |
| 2026-05-07 20:37 | 46.89727 | 17.14263 | 35039 ft | 455 kts | 5° |
| 2026-05-07 20:38 | 46.95945 | 17.15993 | 35051 ft | 455 kts | 5° |
| 2026-05-07 20:38 | 47.02178 | 17.17730 | 35048 ft | 456 kts | 5° |
| 2026-05-07 20:39 | 47.08419 | 17.19460 | 35050 ft | 457 kts | 5° |
| 2026-05-07 20:39 | 47.14664 | 17.21193 | 35055 ft | 457 kts | 5° |
| 2026-05-07 20:40 | 47.20916 | 17.22938 | 35054 ft | 457 kts | 6° |
| 2026-05-07 20:40 | 47.27164 | 17.24700 | 35070 ft | 457 kts | 6° |
| 2026-05-07 20:41 | 47.33400 | 17.26455 | 35068 ft | 456 kts | 6° |
| 2026-05-07 20:41 | 47.39634 | 17.28220 | 35072 ft | 456 kts | 6° |
| 2026-05-07 20:42 | 47.45820 | 17.29969 | 35074 ft | 456 kts | 6° |
| 2026-05-07 20:42 | 47.52045 | 17.31737 | 35068 ft | 455 kts | 6° |
| 2026-05-07 20:43 | 47.58264 | 17.33506 | 35062 ft | 455 kts | 6° |
| 2026-05-07 20:43 | 47.64486 | 17.35282 | 35052 ft | 455 kts | 6° |
| 2026-05-07 20:44 | 47.70701 | 17.37057 | 35046 ft | 455 kts | 6° |
| 2026-05-07 20:44 | 47.76916 | 17.38832 | 35043 ft | 455 kts | 7° |
| 2026-05-07 20:45 | 47.83128 | 17.40609 | 35042 ft | 454 kts | 7° |
| 2026-05-07 20:45 | 47.89335 | 17.42393 | 35041 ft | 454 kts | 7° |
| 2026-05-07 20:46 | 47.95536 | 17.44185 | 35040 ft | 454 kts | 7° |
| 2026-05-07 20:46 | 48.01728 | 17.45964 | 35042 ft | 453 kts | 7° |
| 2026-05-07 20:47 | 48.07880 | 17.47748 | 35044 ft | 453 kts | 7° |
| 2026-05-07 20:47 | 48.14074 | 17.49558 | 35045 ft | 453 kts | 7° |
| 2026-05-07 20:48 | 48.20261 | 17.51364 | 35042 ft | 453 kts | 8° |
| 2026-05-07 20:48 | 48.26443 | 17.53165 | 35037 ft | 453 kts | 8° |
| 2026-05-07 20:49 | 48.32623 | 17.54975 | 35040 ft | 452 kts | 8° |
| 2026-05-07 20:49 | 48.38803 | 17.56795 | 35037 ft | 452 kts | 8° |
| 2026-05-07 20:50 | 48.44979 | 17.58634 | 35042 ft | 452 kts | 8° |
| 2026-05-07 20:50 | 48.51146 | 17.60459 | 35046 ft | 452 kts | 8° |
| 2026-05-07 20:51 | 48.57313 | 17.62270 | 35049 ft | 451 kts | 8° |
| 2026-05-07 20:51 | 48.63474 | 17.64073 | 35050 ft | 451 kts | 9° |
| 2026-05-07 20:52 | 48.69627 | 17.65889 | 35045 ft | 450 kts | 9° |
| 2026-05-07 20:52 | 48.75778 | 17.67724 | 35042 ft | 450 kts | 9° |
| 2026-05-07 20:53 | 48.81879 | 17.69549 | 35036 ft | 450 kts | 9° |
| 2026-05-07 20:53 | 48.88025 | 17.71388 | 35030 ft | 450 kts | 9° |
| 2026-05-07 20:54 | 48.94155 | 17.73306 | 35026 ft | 450 kts | 10° |
| 2026-05-07 20:54 | 49.00299 | 17.75275 | 35019 ft | 456 kts | 10° |
| 2026-05-07 20:55 | 49.06595 | 17.77274 | 35018 ft | 468 kts | 10° |
| 2026-05-07 20:55 | 49.09786 | 17.78285 | 34783 ft | 468 kts | 10° |
| 2026-05-07 20:55 | 49.12955 | 17.79290 | 34539 ft | 460 kts | 10° |
| 2026-05-07 20:55 | 49.16062 | 17.80275 | 34302 ft | 453 kts | 11° |
| 2026-05-07 20:56 | 49.19135 | 17.81253 | 33850 ft | 450 kts | 11° |
| 2026-05-07 20:56 | 49.22200 | 17.82226 | 33242 ft | 450 kts | 11° |
| 2026-05-07 20:56 | 49.25268 | 17.83201 | 32694 ft | 449 kts | 11° |
| 2026-05-07 20:56 | 49.28319 | 17.84173 | 32211 ft | 447 kts | 11° |
| 2026-05-07 20:57 | 49.31354 | 17.85142 | 31742 ft | 445 kts | 11° |
| 2026-05-07 20:57 | 49.34375 | 17.86109 | 31282 ft | 442 kts | 11° |
| 2026-05-07 20:57 | 49.37381 | 17.87072 | 30829 ft | 440 kts | 11° |
| 2026-05-07 20:57 | 49.40369 | 17.88033 | 30400 ft | 438 kts | 11° |
| 2026-05-07 20:58 | 49.43346 | 17.88994 | 29944 ft | 436 kts | 11° |
| 2026-05-07 20:58 | 49.46309 | 17.89952 | 29464 ft | 434 kts | 11° |
| 2026-05-07 20:58 | 49.49253 | 17.90903 | 29027 ft | 431 kts | 11° |
| 2026-05-07 20:58 | 49.52176 | 17.91844 | 28608 ft | 427 kts | 11° |
| 2026-05-07 20:59 | 49.55074 | 17.92774 | 28207 ft | 424 kts | 11° |
| 2026-05-07 20:59 | 49.57957 | 17.93702 | 27818 ft | 422 kts | 11° |
| 2026-05-07 20:59 | 49.60818 | 17.94628 | 27430 ft | 419 kts | 11° |
| 2026-05-07 20:59 | 49.63660 | 17.95548 | 27052 ft | 416 kts | 11° |
| 2026-05-07 21:00 | 49.66445 | 17.96450 | 26669 ft | 413 kts | 11° |
| 2026-05-07 21:00 | 49.69244 | 17.97383 | 26277 ft | 410 kts | 15° |
| 2026-05-07 21:00 | 49.71911 | 17.98881 | 25897 ft | 407 kts | 26° |
| 2026-05-07 21:00 | 49.74465 | 18.00735 | 25507 ft | 404 kts | 26° |
| 2026-05-07 21:01 | 49.77007 | 18.02580 | 25105 ft | 402 kts | 26° |
| 2026-05-07 21:01 | 49.79534 | 18.04411 | 24720 ft | 400 kts | 26° |
| 2026-05-07 21:01 | 49.82045 | 18.06231 | 24331 ft | 397 kts | 26° |
| 2026-05-07 21:01 | 49.84539 | 18.08037 | 23947 ft | 395 kts | 26° |
| 2026-05-07 21:02 | 49.87020 | 18.09836 | 23562 ft | 392 kts | 26° |
| 2026-05-07 21:02 | 49.89480 | 18.11627 | 23113 ft | 390 kts | 26° |
| 2026-05-07 21:02 | 49.91926 | 18.13414 | 22678 ft | 387 kts | 26° |
| 2026-05-07 21:02 | 49.94350 | 18.15189 | 22263 ft | 384 kts | 26° |
| 2026-05-07 21:03 | 49.96629 | 18.17279 | 21846 ft | 378 kts | 41° |
| 2026-05-07 21:03 | 49.98388 | 18.20243 | 21429 ft | 371 kts | 58° |
| 2026-05-07 21:03 | 49.99814 | 18.23564 | 20990 ft | 368 kts | 59° |
| 2026-05-07 21:03 | 50.01205 | 18.26830 | 20574 ft | 366 kts | 59° |
| 2026-05-07 21:04 | 50.02603 | 18.30128 | 20165 ft | 364 kts | 59° |
| 2026-05-07 21:04 | 50.03989 | 18.33407 | 19774 ft | 361 kts | 59° |
| 2026-05-07 21:04 | 50.05359 | 18.36662 | 19376 ft | 359 kts | 58° |
| 2026-05-07 21:04 | 50.06724 | 18.39900 | 18978 ft | 356 kts | 58° |
| 2026-05-07 21:05 | 50.08080 | 18.43108 | 18608 ft | 354 kts | 58° |
| 2026-05-07 21:05 | 50.09429 | 18.46301 | 18234 ft | 351 kts | 58° |
| 2026-05-07 21:05 | 50.10766 | 18.49466 | 17802 ft | 349 kts | 58° |
| 2026-05-07 21:05 | 50.12094 | 18.52620 | 17409 ft | 346 kts | 57° |
| 2026-05-07 21:06 | 50.13409 | 18.55749 | 17003 ft | 344 kts | 58° |
| 2026-05-07 21:06 | 50.14712 | 18.58860 | 16610 ft | 341 kts | 58° |
| 2026-05-07 21:06 | 50.16003 | 18.61949 | 16211 ft | 339 kts | 57° |
| 2026-05-07 21:06 | 50.17286 | 18.65015 | 15823 ft | 337 kts | 57° |
| 2026-05-07 21:07 | 50.18547 | 18.68026 | 15441 ft | 335 kts | 57° |
| 2026-05-07 21:07 | 50.19817 | 18.71062 | 15049 ft | 333 kts | 57° |
| 2026-05-07 21:07 | 50.21074 | 18.74073 | 14687 ft | 331 kts | 57° |
| 2026-05-07 21:07 | 50.22325 | 18.77073 | 14327 ft | 329 kts | 57° |
| 2026-05-07 21:08 | 50.23566 | 18.80050 | 14017 ft | 325 kts | 57° |
| 2026-05-07 21:08 | 50.24788 | 18.82986 | 13727 ft | 320 kts | 57° |
| 2026-05-07 21:08 | 50.25997 | 18.85892 | 13360 ft | 318 kts | 57° |
| 2026-05-07 21:08 | 50.27196 | 18.88781 | 12994 ft | 316 kts | 57° |
| 2026-05-07 21:09 | 50.28394 | 18.91671 | 12497 ft | 319 kts | 57° |
| 2026-05-07 21:09 | 50.29594 | 18.94575 | 11953 ft | 316 kts | 57° |
| 2026-05-07 21:09 | 50.30776 | 18.97443 | 11468 ft | 311 kts | 57° |
| 2026-05-07 21:09 | 50.31939 | 19.00265 | 11002 ft | 307 kts | 56° |
| 2026-05-07 21:10 | 50.33089 | 19.03054 | 10507 ft | 304 kts | 56° |
| 2026-05-07 21:10 | 50.34233 | 19.05824 | 10009 ft | 301 kts | 56° |
| 2026-05-07 21:10 | 50.35365 | 19.08570 | 9486 ft | 299 kts | 56° |
| 2026-05-07 21:10 | 50.36486 | 19.11295 | 8949 ft | 297 kts | 56° |
| 2026-05-07 21:11 | 50.37600 | 19.14003 | 8447 ft | 294 kts | 56° |
| 2026-05-07 21:11 | 50.38687 | 19.16647 | 7942 ft | 292 kts | 56° |
| 2026-05-07 21:11 | 50.40834 | 19.21895 | 7298 ft | 273 kts | 56° |
| 2026-05-07 21:12 | 50.41829 | 19.24330 | 7167 ft | 258 kts | 56° |
| 2026-05-07 21:12 | 50.42769 | 19.26626 | 7042 ft | 242 kts | 56° |
| 2026-05-07 21:12 | 50.43655 | 19.28795 | 6817 ft | 231 kts | 56° |
| 2026-05-07 21:12 | 50.44513 | 19.30902 | 6460 ft | 228 kts | 56° |
| 2026-05-07 21:13 | 50.45361 | 19.32989 | 6053 ft | 225 kts | 56° |
| 2026-05-07 21:13 | 50.46196 | 19.35038 | 5599 ft | 225 kts | 56° |
| 2026-05-07 21:13 | 50.47067 | 19.37174 | 4868 ft | 237 kts | 56° |
| 2026-05-07 21:13 | 50.47964 | 19.39350 | 4339 ft | 237 kts | 55° |
| 2026-05-07 21:14 | 50.48862 | 19.41494 | 3882 ft | 233 kts | 55° |
| 2026-05-07 21:14 | 50.49751 | 19.43605 | 3428 ft | 230 kts | 56° |
| 2026-05-07 21:14 | 50.50718 | 19.45507 | 3373 ft | 226 kts | 36° |
| 2026-05-07 21:14 | 50.52213 | 19.46226 | 3403 ft | 227 kts | 355° |
| 2026-05-07 21:15 | 50.53605 | 19.45242 | 3405 ft | 228 kts | 315° |
| 2026-05-07 21:15 | 50.54259 | 19.43024 | 3401 ft | 231 kts | 274° |
| 2026-05-07 21:15 | 50.53870 | 19.40595 | 3413 ft | 233 kts | 243° |
| 2026-05-07 21:15 | 50.52982 | 19.38451 | 3401 ft | 234 kts | 234° |
| 2026-05-07 21:16 | 50.51979 | 19.36438 | 3406 ft | 234 kts | 232° |
| 2026-05-07 21:16 | 50.50986 | 19.34476 | 3396 ft | 222 kts | 233° |
| 2026-05-07 21:16 | 50.50058 | 19.32581 | 3406 ft | 217 kts | 234° |
| 2026-05-07 21:16 | 50.49165 | 19.30687 | 3404 ft | 215 kts | 235° |
| 2026-05-07 21:17 | 50.48294 | 19.28783 | 3322 ft | 214 kts | 236° |
| 2026-05-07 21:17 | 50.47632 | 19.26760 | 3081 ft | 202 kts | 260° |
| 2026-05-07 21:17 | 50.47545 | 19.24657 | 2939 ft | 191 kts | 271° |
| 2026-05-07 21:17 | 50.47550 | 19.22646 | 2656 ft | 178 kts | 271° |
| 2026-05-07 21:18 | 50.47559 | 19.20772 | 2427 ft | 165 kts | 272° |
| 2026-05-07 21:18 | 50.47565 | 19.19072 | 2216 ft | 147 kts | 272° |
| 2026-05-07 21:18 | 50.47570 | 19.17518 | 2022 ft | 138 kts | 272° |
| 2026-05-07 21:18 | 50.47576 | 19.16030 | 1820 ft | 135 kts | 272° |
| 2026-05-07 21:19 | 50.47574 | 19.14557 | 1612 ft | 134 kts | 271° |
| 2026-05-07 21:19 | 50.47584 | 19.13102 | 1405 ft | 133 kts | 272° |
| 2026-05-07 21:19 | 50.47586 | 19.11662 | 1235 ft | 131 kts | 271° |
| 2026-05-07 21:19 | 50.47602 | 19.10237 | 1057 ft | 130 kts | 274° |
| 2026-05-07 21:20 | 50.47601 | 19.08886 | 1000 ft | 108 kts | 270° |
| 2026-05-07 21:20 | 50.47600 | 19.07975 | 997 ft | 57 kts | 270° |
| 2026-05-07 21:20 | 50.47601 | 19.07496 | 1000 ft | 28 kts | 270° |
| 2026-05-07 21:20 | 50.47593 | 19.07232 | 1002 ft | 23 kts | 261° |
| 2026-05-07 21:21 | 50.47547 | 19.07018 | 1003 ft | 21 kts | 244° |
| 2026-05-07 21:21 | 50.47486 | 19.06849 | 1002 ft | 17 kts | 240° |
| 2026-05-07 21:21 | 50.47446 | 19.06737 | 1001 ft | 13 kts | 240° |
| 2026-05-07 21:21 | 50.47389 | 19.06632 | 1002 ft | 13 kts | 195° |
| 2026-05-07 21:22 | 50.47299 | 19.06626 | 1001 ft | 13 kts | 179° |
| 2026-05-07 21:22 | 50.47238 | 19.06693 | 1000 ft | 10 kts | 103° |
| 2026-05-07 21:22 | 50.47236 | 19.06797 | 998 ft | 11 kts | 90° |
| 2026-05-07 21:22 | 50.47235 | 19.06941 | 1003 ft | 14 kts | 90° |
| 2026-05-07 21:23 | 50.47235 | 19.07081 | 998 ft | 13 kts | 90° |
| 2026-05-07 21:23 | 50.47235 | 19.07228 | 1003 ft | 14 kts | 90° |
| 2026-05-07 21:23 | 50.47235 | 19.07391 | 1003 ft | 16 kts | 90° |
| 2026-05-07 21:23 | 50.47234 | 19.07546 | 1003 ft | 13 kts | 90° |
| 2026-05-07 21:24 | 50.47233 | 19.07675 | 1003 ft | 11 kts | 90° |
| 2026-05-07 21:24 | 50.47233 | 19.07776 | 1003 ft | 8 kts | 90° |
| 2026-05-07 21:24 | 50.47220 | 19.07831 | 1002 ft | 4 kts | 156° |
| 2026-05-07 21:24 | 50.47194 | 19.07827 | 1000 ft | 5 kts | 184° |
| 2026-05-07 21:25 | 50.47159 | 19.07827 | 998 ft | 3 kts | 180° |
| 2026-05-07 21:25 | 50.47151 | 19.07826 | 1003 ft | 0 kts | 180° |
| 2026-05-07 21:25 | 50.47149 | 19.07826 | 1003 ft | 0 kts | 180° |
| 2026-05-07 21:25 | 50.47147 | 19.07826 | 1003 ft | 0 kts | 180° |